createdAt,value
2022-12-18T00:02:04.606Z,100858.53
2022-12-18T00:04:54.823Z,100870.59
2022-12-18T00:07:45.472Z,100874.75
2022-12-18T00:10:35.386Z,100878.69
2022-12-18T00:13:25.687Z,100878.47
2022-12-18T00:16:23.807Z,100887.41
2022-12-18T00:19:14.662Z,100892.84
2022-12-18T00:22:04.783Z,100903.44
2022-12-18T00:24:55.177Z,100888.69
2022-12-18T00:27:44.949Z,100895.97
2022-12-18T00:30:36.275Z,100920.50
2022-12-18T00:33:26.255Z,100904.69
2022-12-18T00:36:19.914Z,100863.53
2022-12-18T00:39:10.659Z,100914.66
2022-12-18T00:42:18.837Z,100931.50
2022-12-18T00:45:12.993Z,100927.97
2022-12-18T00:48:03.188Z,100937.94
2022-12-18T00:50:54.920Z,100943.34
2022-12-18T00:53:44.920Z,100946.66
2022-12-18T00:56:34.921Z,100945.03
2022-12-18T00:59:24.952Z,100932.53
2022-12-18T01:02:14.925Z,100943.75
2022-12-18T01:05:07.789Z,100946.66
2022-12-18T01:07:59.571Z,100952.47
2022-12-18T01:10:49.727Z,100951.66
2022-12-18T01:13:40.135Z,100952.06
2022-12-18T01:16:30.680Z,100950.00
2022-12-18T01:19:20.781Z,100937.53
2022-12-18T01:22:10.911Z,100941.69
2022-12-18T01:25:01.161Z,100940.41
2022-12-18T01:27:51.054Z,100928.78
2022-12-18T01:30:41.369Z,100930.25
2022-12-18T01:33:31.529Z,100947.06
2022-12-18T01:36:27.455Z,100919.63
2022-12-18T01:39:18.390Z,100917.16
2022-12-18T01:42:17.825Z,100870.59
2022-12-18T01:45:17.073Z,100946.66
2022-12-18T01:48:11.432Z,100873.94
2022-12-18T01:51:01.610Z,100938.72
2022-12-18T01:53:52.762Z,100954.13
2022-12-18T01:56:42.974Z,100966.63
2022-12-18T01:59:35.774Z,100908.00
2022-12-18T02:02:26.306Z,100949.13
2022-12-18T02:05:55.044Z,100945.22
2022-12-18T02:09:10.457Z,100930.41
2022-12-18T02:12:26.994Z,100946.84
2022-12-18T02:15:28.129Z,100920.03
2022-12-18T02:18:35.660Z,100953.69
2022-12-18T02:21:46.835Z,100972.00
2022-12-18T02:25:02.972Z,100954.94
2022-12-18T02:27:56.097Z,100952.41
2022-12-18T02:30:50.154Z,100935.78
2022-12-18T02:33:42.346Z,100890.91
2022-12-18T02:36:35.207Z,100947.59
2022-12-18T02:39:28.865Z,100955.28
2022-12-18T02:42:27.343Z,100944.47
2022-12-18T02:45:17.658Z,100945.91
2022-12-18T02:48:10.901Z,100941.53
2022-12-18T02:51:11.563Z,100948.19
2022-12-18T02:54:24.114Z,100876.56
2022-12-18T02:57:38.945Z,100808.44
2022-12-18T03:00:55.115Z,100860.97
2022-12-18T03:03:55.685Z,100940.88
2022-12-18T03:06:57.732Z,100840.13
2022-12-18T03:09:51.715Z,100917.88
2022-12-18T03:12:48.008Z,100889.28
2022-12-18T03:15:56.151Z,100835.53
2022-12-18T03:19:09.736Z,100828.50
2022-12-18T03:22:03.554Z,100867.00
2022-12-18T03:25:07.142Z,100891.69
2022-12-18T03:28:01.753Z,100792.47
2022-12-18T03:30:59.988Z,100866.47
2022-12-18T03:34:03.003Z,100881.22
2022-12-18T03:37:01.737Z,100874.16
2022-12-18T03:39:53.960Z,100853.97
2022-12-18T03:42:59.947Z,100876.00
2022-12-18T03:45:59.404Z,100864.38
2022-12-18T03:48:55.554Z,100863.59
2022-12-18T03:51:50.975Z,100862.16
2022-12-18T03:54:44.489Z,100793.28
2022-12-18T03:57:38.821Z,100840.78
2022-12-18T04:00:29.415Z,100854.06
2022-12-18T04:03:30.092Z,100772.31
2022-12-18T04:06:21.411Z,100838.25
2022-12-18T04:09:12.519Z,100830.75
2022-12-18T04:12:07.214Z,100822.63
2022-12-18T04:14:58.360Z,100819.06
2022-12-18T04:17:53.236Z,100825.25
2022-12-18T04:20:46.849Z,100799.91
2022-12-18T04:23:38.727Z,100803.34
2022-12-18T04:26:28.976Z,100802.66
2022-12-18T04:29:36.083Z,100806.97
2022-12-18T04:32:26.103Z,100798.41
2022-12-18T04:35:16.272Z,100807.59
2022-12-18T04:38:10.963Z,100796.16
2022-12-18T04:41:01.580Z,100795.78
2022-12-18T04:43:53.521Z,100784.97
2022-12-18T04:46:43.483Z,100767.81
2022-12-18T04:49:34.005Z,100761.94
2022-12-18T04:52:26.585Z,100764.22
2022-12-18T04:55:16.524Z,100760.00
2022-12-18T04:58:06.601Z,100732.31
2022-12-18T05:01:03.529Z,100743.91
2022-12-18T05:03:55.284Z,100753.44
2022-12-18T05:06:52.576Z,100738.88
2022-12-18T05:09:49.169Z,100720.50
2022-12-18T05:12:58.873Z,100711.53
2022-12-18T05:15:55.432Z,100713.41
2022-12-18T05:18:45.695Z,100715.00
2022-12-18T05:21:35.634Z,100709.44
2022-12-18T05:24:25.495Z,100697.97
2022-12-18T05:27:15.358Z,100698.88
2022-12-18T05:30:05.866Z,100688.59
2022-12-18T05:32:56.671Z,100676.50
2022-12-18T05:35:46.409Z,100672.09
2022-12-18T05:38:38.840Z,100627.63
2022-12-18T05:41:29.216Z,100667.75
2022-12-18T05:44:19.283Z,100666.47
2022-12-18T05:47:09.428Z,100662.53
2022-12-18T05:49:59.762Z,100644.56
2022-12-18T05:52:49.793Z,100627.72
2022-12-18T05:55:42.596Z,100565.19
2022-12-18T05:58:32.713Z,100604.69
2022-12-18T06:01:29.814Z,100611.63
2022-12-18T06:04:21.659Z,100605.44
2022-12-18T06:07:11.698Z,100605.06
2022-12-18T06:10:02.056Z,100601.97
2022-12-18T06:12:52.329Z,100594.78
2022-12-18T06:15:42.215Z,100600.59
2022-12-18T06:18:32.278Z,100609.63
2022-12-18T06:21:22.278Z,100600.31
2022-12-18T06:24:12.497Z,100593.69
2022-12-18T06:27:02.374Z,100594.59
2022-12-18T06:29:52.491Z,100587.59
2022-12-18T06:32:42.791Z,100579.25
2022-12-18T06:35:32.949Z,100581.03
2022-12-18T06:38:23.313Z,100583.00
2022-12-18T06:41:18.718Z,100588.28
2022-12-18T06:44:09.226Z,100569.78
2022-12-18T06:47:01.161Z,100576.38
2022-12-18T06:49:51.095Z,100585.56
2022-12-18T06:52:41.935Z,100572.50
2022-12-18T06:55:31.745Z,100568.13
2022-12-18T06:58:22.768Z,100571.88
2022-12-18T07:01:14.861Z,100565.78
2022-12-18T07:04:05.364Z,100556.47
2022-12-18T07:06:55.564Z,100552.69
2022-12-18T07:09:45.647Z,100544.38
2022-12-18T07:12:35.895Z,100547.06
2022-12-18T07:15:25.716Z,100536.72
2022-12-18T07:18:16.613Z,100523.19
2022-12-18T07:21:15.109Z,100525.59
2022-12-18T07:24:05.201Z,100511.25
2022-12-18T07:26:55.706Z,100500.16
2022-12-18T07:29:45.930Z,100487.69
2022-12-18T07:32:36.849Z,100491.44
2022-12-18T07:35:27.000Z,100492.72
2022-12-18T07:38:16.983Z,100503.94
2022-12-18T07:41:12.925Z,100483.31
2022-12-18T07:44:03.417Z,100485.00
2022-12-18T07:46:53.494Z,100482.56
2022-12-18T07:49:43.756Z,100487.09
2022-12-18T07:52:33.327Z,100487.75
2022-12-18T07:55:24.440Z,100469.00
2022-12-18T07:58:14.207Z,100482.56
2022-12-18T08:01:10.224Z,100477.56
2022-12-18T08:04:01.799Z,100494.03
2022-12-18T08:06:51.479Z,100503.13
2022-12-18T08:09:41.303Z,100511.97
2022-12-18T08:12:31.247Z,100489.94
2022-12-18T08:15:21.442Z,100504.56
2022-12-18T08:18:14.278Z,100508.59
2022-12-18T08:21:15.682Z,100518.97
2022-12-18T08:24:06.098Z,100528.66
2022-12-18T08:27:27.946Z,100528.44
2022-12-18T08:30:08.073Z,100541.09
2022-12-18T08:32:58.145Z,100534.00
2022-12-18T08:35:48.065Z,100540.63
2022-12-18T08:38:38.360Z,100534.94
2022-12-18T08:41:28.306Z,100528.00
2022-12-18T08:44:36.780Z,100539.09
2022-12-18T08:47:26.665Z,100544.50
2022-12-18T08:50:17.376Z,100517.72
2022-12-18T08:53:08.220Z,100517.16
2022-12-18T08:56:00.401Z,100542.25
2022-12-18T08:58:50.580Z,100518.97
2022-12-18T09:01:41.153Z,100544.50
2022-12-18T09:04:30.964Z,100547.81
2022-12-18T09:07:21.038Z,100551.94
2022-12-18T09:10:11.310Z,100543.47
2022-12-18T09:13:01.631Z,100554.41
2022-12-18T09:15:54.010Z,100550.19
2022-12-18T09:18:44.006Z,100552.31
2022-12-18T09:21:37.262Z,100504.28
2022-12-18T09:24:27.505Z,100549.72
2022-12-18T09:27:17.257Z,100558.47
2022-12-18T09:30:07.993Z,100556.31
2022-12-18T09:32:58.547Z,100550.31
2022-12-18T09:35:49.316Z,100550.44
2022-12-18T09:38:39.750Z,100556.44
2022-12-18T09:41:58.416Z,100554.06
2022-12-18T09:44:53.818Z,100502.25
2022-12-18T09:47:46.416Z,100516.03
2022-12-18T09:50:42.113Z,100572.81
2022-12-18T09:53:38.156Z,100590.13
2022-12-18T09:56:31.835Z,100551.94
2022-12-18T09:59:35.033Z,100603.44
2022-12-18T10:02:33.543Z,100556.53
2022-12-18T10:05:32.648Z,100624.66
2022-12-18T10:08:55.893Z,100608.03
2022-12-18T10:12:16.704Z,100646.41
2022-12-18T10:15:19.709Z,100654.34
2022-12-18T10:18:31.434Z,100656.91
2022-12-18T10:21:30.305Z,100643.16
2022-12-18T10:25:01.567Z,100642.16
2022-12-18T10:27:57.855Z,100677.34
2022-12-18T10:30:48.110Z,100690.81
2022-12-18T10:33:39.168Z,100696.00
2022-12-18T10:36:29.241Z,100700.38
2022-12-18T10:39:20.937Z,100700.38
2022-12-18T10:42:21.306Z,100668.84
2022-12-18T10:45:22.307Z,100714.97
2022-12-18T10:48:33.662Z,100708.44
2022-12-18T10:51:36.448Z,100705.53
2022-12-18T10:54:28.463Z,100706.69
2022-12-18T10:57:31.555Z,100708.84
2022-12-18T11:00:31.734Z,100718.47
2022-12-18T11:03:40.572Z,100728.19
2022-12-18T11:06:30.527Z,100739.69
2022-12-18T11:09:26.359Z,100736.38
2022-12-18T11:12:25.520Z,100748.72
2022-12-18T11:15:26.540Z,100701.63
2022-12-18T11:18:39.092Z,100757.59
2022-12-18T11:21:29.653Z,100754.31
2022-12-18T11:24:28.747Z,100753.84
2022-12-18T11:27:21.683Z,100772.38
2022-12-18T11:30:31.095Z,100763.47
2022-12-18T11:33:25.788Z,100719.19
2022-12-18T11:36:17.714Z,100779.25
2022-12-18T11:39:22.457Z,100777.91
2022-12-18T11:42:25.325Z,100793.09
2022-12-18T11:45:15.874Z,100803.28
2022-12-18T11:48:27.092Z,100795.69
2022-12-18T11:51:31.256Z,100758.03
2022-12-18T11:54:21.161Z,100823.34
2022-12-18T11:57:40.998Z,100793.00
2022-12-18T12:00:31.677Z,100841.72
2022-12-18T12:03:51.913Z,100846.53
2022-12-18T12:07:12.821Z,100844.75
2022-12-18T12:10:26.516Z,100851.41
2022-12-18T12:13:39.233Z,100869.91
2022-12-18T12:17:09.954Z,100809.75
2022-12-18T12:20:22.131Z,100863.69
2022-12-18T12:23:33.872Z,100871.34
2022-12-18T12:26:50.306Z,100880.44
2022-12-18T12:29:58.397Z,100883.63
2022-12-18T12:32:53.785Z,100900.91
2022-12-18T12:36:25.133Z,100909.38
2022-12-18T12:39:24.914Z,100844.13
2022-12-18T12:42:48.619Z,100867.25
2022-12-18T12:46:15.360Z,100893.63
2022-12-18T12:49:13.118Z,100905.91
2022-12-18T12:52:33.520Z,100910.72
2022-12-18T12:55:30.483Z,100926.78
2022-12-18T12:58:41.698Z,100922.19
2022-12-18T13:01:44.222Z,100909.34
2022-12-18T13:04:48.019Z,100947.59
2022-12-18T13:07:51.089Z,100939.13
2022-12-18T13:10:43.845Z,100932.03
2022-12-18T13:13:50.881Z,100945.22
2022-12-18T13:16:41.383Z,100927.50
2022-12-18T13:19:31.552Z,100938.13
2022-12-18T13:22:28.196Z,100957.44
2022-12-18T13:25:50.285Z,100956.63
2022-12-18T13:29:00.227Z,100957.88
2022-12-18T13:31:53.351Z,100957.47
2022-12-18T13:34:44.098Z,100956.81
2022-12-18T13:37:58.127Z,100956.22
2022-12-18T13:40:51.560Z,100955.38
2022-12-18T13:43:52.385Z,100963.47
2022-12-18T13:46:48.538Z,100975.75
2022-12-18T13:49:44.511Z,100966.63
2022-12-18T13:52:42.438Z,100983.66
2022-12-18T13:55:33.157Z,100989.47
2022-12-18T13:58:23.324Z,100984.50
2022-12-18T14:01:27.086Z,100973.69
2022-12-18T14:04:38.143Z,100986.13
2022-12-18T14:07:35.919Z,100937.06
2022-12-18T14:10:48.475Z,100982.00
2022-12-18T14:13:45.296Z,100980.34
2022-12-18T14:16:36.079Z,100975.34
2022-12-18T14:19:28.055Z,100965.34
2022-12-18T14:22:31.950Z,100937.69
2022-12-18T14:25:32.727Z,100982.41
2022-12-18T14:28:24.481Z,100983.44
2022-12-18T14:31:29.519Z,100971.53
2022-12-18T14:34:20.045Z,100976.38
2022-12-18T14:37:14.131Z,100981.16
2022-12-18T14:40:10.857Z,100960.75
2022-12-18T14:43:01.093Z,100965.53
2022-12-18T14:45:52.202Z,100966.13
2022-12-18T14:48:45.463Z,100934.75
2022-12-18T14:51:37.325Z,100962.38
2022-12-18T14:54:30.304Z,100959.91
2022-12-18T14:57:36.743Z,100911.63
2022-12-18T15:00:28.623Z,100917.47
2022-12-18T15:03:22.816Z,100967.72
2022-12-18T15:06:30.754Z,100977.13
2022-12-18T15:09:28.826Z,100964.44
2022-12-18T15:13:10.484Z,100968.56
2022-12-18T15:16:05.817Z,100900.00
2022-12-18T15:18:56.633Z,100961.53
2022-12-18T15:21:46.984Z,100956.34
2022-12-18T15:24:37.287Z,100949.50
2022-12-18T15:27:50.127Z,100957.38
2022-12-18T15:30:40.476Z,100956.13
2022-12-18T15:33:36.045Z,100951.16
2022-12-18T15:36:27.215Z,100959.88
2022-12-18T15:39:17.583Z,100950.31
2022-12-18T15:42:30.078Z,100954.25
2022-12-18T15:45:20.917Z,100953.22
2022-12-18T15:48:25.249Z,100917.84
2022-12-18T15:51:39.019Z,100958.22
2022-12-18T15:54:48.179Z,100948.22
2022-12-18T15:57:38.653Z,100962.34
2022-12-18T16:00:29.543Z,100959.03
2022-12-18T16:03:20.143Z,100961.53
2022-12-18T16:06:11.957Z,100950.31
2022-12-18T16:09:01.954Z,100946.75
2022-12-18T16:11:52.107Z,100939.94
2022-12-18T16:14:42.536Z,100937.00
2022-12-18T16:17:32.903Z,100931.19
2022-12-18T16:20:25.218Z,100936.59
2022-12-18T16:23:15.905Z,100923.50
2022-12-18T16:26:07.243Z,100931.59
2022-12-18T16:28:57.539Z,100930.34
2022-12-18T16:31:47.744Z,100920.59
2022-12-18T16:34:38.442Z,100923.91
2022-12-18T16:37:29.360Z,100919.13
2022-12-18T16:40:20.955Z,100906.88
2022-12-18T16:43:12.154Z,100909.97
2022-12-18T16:46:02.727Z,100901.25
2022-12-18T16:48:53.278Z,100899.19
2022-12-18T16:51:43.376Z,100888.34
2022-12-18T16:54:38.100Z,100887.72
2022-12-18T16:57:28.668Z,100872.31
2022-12-18T17:00:19.708Z,100882.91
2022-12-18T17:03:10.241Z,100882.50
2022-12-18T17:06:08.086Z,100885.22
2022-12-18T17:08:59.784Z,100838.00
2022-12-18T17:11:49.777Z,100896.00
2022-12-18T17:14:40.319Z,100887.06
2022-12-18T17:17:30.968Z,100887.31
2022-12-18T17:20:21.355Z,100888.72
2022-12-18T17:23:11.819Z,100874.59
2022-12-18T17:26:02.714Z,100887.69
2022-12-18T17:28:52.875Z,100880.41
2022-12-18T17:31:42.985Z,100885.78
2022-12-18T17:34:33.277Z,100891.81
2022-12-18T17:37:23.727Z,100869.19
2022-12-18T17:40:13.623Z,100864.63
2022-12-18T17:43:03.705Z,100871.06
2022-12-18T17:45:53.809Z,100881.84
2022-12-18T17:48:45.908Z,100890.34
2022-12-18T17:51:35.698Z,100869.59
2022-12-18T17:54:25.589Z,100875.81
2022-12-18T17:57:15.403Z,100865.44
2022-12-18T18:00:08.780Z,100864.41
2022-12-18T18:02:59.141Z,100819.50
2022-12-18T18:05:49.143Z,100857.13
2022-12-18T18:08:38.984Z,100853.78
2022-12-18T18:11:47.018Z,100852.53
2022-12-18T18:14:36.854Z,100799.69
2022-12-18T18:17:27.894Z,100857.94
2022-12-18T18:20:22.541Z,100856.06
2022-12-18T18:23:12.963Z,100851.72
2022-12-18T18:26:10.852Z,100826.94
2022-12-18T18:29:03.061Z,100855.84
2022-12-18T18:31:55.218Z,100840.28
2022-12-18T18:34:45.100Z,100837.59
2022-12-18T18:37:34.898Z,100838.81
2022-12-18T18:40:25.139Z,100817.44
2022-12-18T18:43:17.813Z,100819.50
2022-12-18T18:46:08.384Z,100821.38
2022-12-18T18:48:58.365Z,100810.16
2022-12-18T18:51:48.120Z,100811.00
2022-12-18T18:54:44.308Z,100801.19
2022-12-18T18:57:43.512Z,100803.94
2022-12-18T19:00:33.251Z,100804.34
2022-12-18T19:03:23.893Z,100794.41
2022-12-18T19:06:20.999Z,100801.84
2022-12-18T19:09:11.160Z,100801.84
2022-12-18T19:12:19.255Z,100798.50
2022-12-18T19:15:09.717Z,100781.06
2022-12-18T19:17:59.951Z,100782.53
2022-12-18T19:21:01.247Z,100674.63
2022-12-18T19:23:52.165Z,100772.94
2022-12-18T19:26:42.335Z,100768.19
2022-12-18T19:29:32.994Z,100766.72
2022-12-18T19:32:22.947Z,100761.97
2022-12-18T19:35:13.690Z,100760.31
2022-12-18T19:38:04.770Z,100778.31
2022-12-18T19:40:55.334Z,100775.19
2022-12-18T19:43:46.253Z,100777.91
2022-12-18T19:46:38.289Z,100755.50
2022-12-18T19:49:31.749Z,100767.13
2022-12-18T19:52:22.374Z,100766.47
2022-12-18T19:55:13.007Z,100709.81
2022-12-18T19:58:02.702Z,100754.06
2022-12-18T20:00:52.989Z,100737.41
2022-12-18T20:03:42.796Z,100740.75
2022-12-18T20:06:55.141Z,100655.09
2022-12-18T20:09:45.242Z,100760.00
2022-12-18T20:12:36.029Z,100758.56
2022-12-18T20:15:25.982Z,100764.75
2022-12-18T20:18:16.472Z,100765.63
2022-12-18T20:21:13.623Z,100763.91
2022-12-18T20:24:04.124Z,100758.94
2022-12-18T20:26:54.453Z,100763.91
2022-12-18T20:29:45.210Z,100757.91
2022-12-18T20:32:37.178Z,100757.25
2022-12-18T20:35:30.159Z,100771.38
2022-12-18T20:38:20.363Z,100766.78
2022-12-18T20:41:17.856Z,100777.31
2022-12-18T20:44:22.760Z,100770.13
2022-12-18T20:47:14.238Z,100771.13
2022-12-18T20:50:04.540Z,100758.06
2022-12-18T20:52:54.547Z,100763.44
2022-12-18T20:55:44.703Z,100765.50
2022-12-18T20:58:34.553Z,100775.44
2022-12-18T21:01:26.125Z,100719.31
2022-12-18T21:04:16.337Z,100767.59
2022-12-18T21:07:08.242Z,100765.88
2022-12-18T21:09:58.695Z,100772.72
2022-12-18T21:12:58.834Z,100775.41
2022-12-18T21:15:51.560Z,100779.13
2022-12-18T21:18:41.556Z,100789.00
2022-12-18T21:21:38.007Z,100795.69
2022-12-18T21:24:30.589Z,100795.06
2022-12-18T21:27:22.970Z,100784.81
2022-12-18T21:30:13.524Z,100801.81
2022-12-18T21:33:03.495Z,100800.16
2022-12-18T21:35:53.119Z,100797.22
2022-12-18T21:38:43.553Z,100804.91
2022-12-18T21:41:52.956Z,100795.19
2022-12-18T21:44:46.634Z,100806.13
2022-12-18T21:47:36.740Z,100796.59
2022-12-18T21:50:27.031Z,100790.56
2022-12-18T21:53:16.833Z,100787.00
2022-12-18T21:56:07.396Z,100797.38
2022-12-18T21:58:57.645Z,100795.72
2022-12-18T22:01:49.081Z,100791.34
2022-12-18T22:04:39.454Z,100792.56
2022-12-18T22:07:30.660Z,100784.25
2022-12-18T22:10:20.620Z,100808.31
2022-12-18T22:13:10.621Z,100811.22
2022-12-18T22:16:01.070Z,100822.81
2022-12-18T22:18:50.622Z,100825.69
2022-12-18T22:21:43.790Z,100850.56
2022-12-18T22:24:35.452Z,100840.19
2022-12-18T22:27:25.328Z,100840.19
2022-12-18T22:30:16.033Z,100850.97
2022-12-18T22:33:06.145Z,100860.06
2022-12-18T22:35:56.464Z,100858.78
2022-12-18T22:38:49.007Z,100810.91
2022-12-18T22:41:38.723Z,100845.41
2022-12-18T22:44:28.690Z,100873.66
2022-12-18T22:47:18.556Z,100845.59
2022-12-18T22:50:09.272Z,100865.97
2022-12-18T22:52:58.966Z,100872.38
2022-12-18T22:55:49.151Z,100873.41
2022-12-18T22:58:39.587Z,100883.53
2022-12-18T23:01:32.189Z,100872.31
2022-12-18T23:04:24.118Z,100862.78
2022-12-18T23:07:16.254Z,100878.63
2022-12-18T23:10:06.622Z,100874.94
2022-12-18T23:12:57.504Z,100881.22
2022-12-18T23:15:47.339Z,100878.41
2022-12-18T23:18:38.210Z,100881.34
2022-12-18T23:21:27.973Z,100877.88
2022-12-18T23:24:20.051Z,100869.44
2022-12-18T23:27:11.773Z,100859.56
2022-12-18T23:30:02.053Z,100903.91
2022-12-18T23:32:51.805Z,100913.06
2022-12-18T23:35:42.124Z,100908.50
2022-12-18T23:38:33.226Z,100933.88
2022-12-18T23:41:24.773Z,100952.59
2022-12-18T23:44:14.600Z,100940.56
2022-12-18T23:47:05.119Z,100940.00
2022-12-18T23:49:55.242Z,100938.19
2022-12-18T23:52:45.735Z,100944.84
2022-12-18T23:55:41.987Z,100943.41
2022-12-18T23:58:32.241Z,100946.19
